createdAt,value
2023-03-06T00:05:06.772Z,7.35
2023-03-06T00:11:58.127Z,7.55
2023-03-06T00:18:55.362Z,7.38
2023-03-06T00:25:44.846Z,7.43
2023-03-06T00:32:39.626Z,7.63
2023-03-06T00:39:27.964Z,5.80
2023-03-06T00:46:23.569Z,5.03
2023-03-06T00:53:11.330Z,6.03
2023-03-06T01:00:00.982Z,5.57
2023-03-06T01:11:03.452Z,5.10
2023-03-06T01:17:59.990Z,5.82
2023-03-06T01:24:40.231Z,5.75
2023-03-06T01:31:33.617Z,5.68
2023-03-06T01:38:23.912Z,6.00
2023-03-06T01:45:54.411Z,5.65
2023-03-06T01:56:54.365Z,5.35
2023-03-06T02:03:47.834Z,6.10
2023-03-06T02:10:35.865Z,5.68
2023-03-06T02:17:31.280Z,6.05
2023-03-06T02:24:28.459Z,6.10
2023-03-06T02:31:32.857Z,6.20
2023-03-06T02:38:29.745Z,6.05
2023-03-06T02:45:13.646Z,6.40
2023-03-06T02:52:09.910Z,6.88
2023-03-06T02:59:11.412Z,6.07
2023-03-06T03:10:31.910Z,5.28
2023-03-06T03:17:20.332Z,6.07
2023-03-06T03:24:14.188Z,5.93
2023-03-06T03:31:06.624Z,5.82
2023-03-06T03:38:01.584Z,6.28
2023-03-06T03:44:42.333Z,6.22
2023-03-06T03:51:42.726Z,6.63
2023-03-06T03:58:36.408Z,5.82
2023-03-06T04:05:24.356Z,5.85
2023-03-06T04:12:18.717Z,6.85
2023-03-06T04:19:11.398Z,6.50
2023-03-06T04:26:05.640Z,5.60
2023-03-06T04:32:56.233Z,5.78
2023-03-06T04:39:50.952Z,5.85
2023-03-06T04:46:38.509Z,6.20
2023-03-06T04:53:33.038Z,5.28
2023-03-06T05:00:30.704Z,5.60
2023-03-06T05:11:52.784Z,6.55
2023-03-06T05:18:39.825Z,12.45
2023-03-06T05:25:33.237Z,6.50
2023-03-06T05:32:23.361Z,6.10
2023-03-06T05:39:17.583Z,7.78
2023-03-06T05:46:07.240Z,9.38
2023-03-06T05:53:01.876Z,8.27
2023-03-06T06:00:07.041Z,7.75
2023-03-06T06:11:20.970Z,9.15
2023-03-06T06:18:14.025Z,8.50
2023-03-06T06:25:01.072Z,8.48
2023-03-06T06:31:49.722Z,7.47
2023-03-06T06:38:36.139Z,7.50
2023-03-06T06:45:29.156Z,6.88
2023-03-06T06:52:12.290Z,6.32
2023-03-06T06:59:16.074Z,6.78
2023-03-06T07:06:16.151Z,9.38
2023-03-06T07:13:11.562Z,7.40
2023-03-06T07:19:58.257Z,6.88
2023-03-06T07:31:21.580Z,6.10
2023-03-06T07:38:07.967Z,6.10
2023-03-06T07:45:01.929Z,6.05
2023-03-06T07:51:49.567Z,6.00
2023-03-06T07:58:43.807Z,5.97
2023-03-06T08:05:24.351Z,6.65
2023-03-06T08:12:19.518Z,5.97
2023-03-06T08:19:06.042Z,7.38
2023-03-06T08:25:59.996Z,6.63
2023-03-06T08:32:48.571Z,6.90
2023-03-06T08:39:42.645Z,6.75
2023-03-06T09:39:01.226Z,6.45
2023-03-06T09:46:06.106Z,6.32
2023-03-06T09:53:07.592Z,5.43
2023-03-06T10:08:59.518Z,6.15
2023-03-06T10:15:58.820Z,5.43
2023-03-06T10:23:12.095Z,6.00
2023-03-06T10:30:28.138Z,6.28
2023-03-06T10:37:32.317Z,6.32
2023-03-06T10:44:39.093Z,7.85
2023-03-06T13:09:23.132Z,9.82
2023-03-06T13:16:30.269Z,9.82
2023-03-06T13:23:51.236Z,9.68
2023-03-06T13:30:51.420Z,10.02
2023-03-06T13:38:04.959Z,10.75
2023-03-06T13:44:46.190Z,10.10
2023-03-06T13:51:43.433Z,8.98
2023-03-06T13:58:49.218Z,9.70
2023-03-06T14:05:48.471Z,10.23
2023-03-06T14:17:24.585Z,9.10
2023-03-06T14:25:06.936Z,10.45
2023-03-06T14:32:02.773Z,11.55
2023-03-06T14:38:53.809Z,10.05
2023-03-06T14:45:57.381Z,9.82
2023-03-06T14:52:52.107Z,10.80
2023-03-06T14:59:37.406Z,9.85
2023-03-06T15:06:38.426Z,10.13
2023-03-06T15:13:31.187Z,9.77
2023-03-06T15:24:45.953Z,13.43
2023-03-06T15:31:34.203Z,12.98
2023-03-06T15:38:35.510Z,13.43
2023-03-06T15:45:26.982Z,12.10
2023-03-06T15:52:16.534Z,12.32
2023-03-06T15:59:03.925Z,13.10
2023-03-06T16:06:00.506Z,11.13
2023-03-06T16:12:51.538Z,17.73
2023-03-06T16:24:05.998Z,15.18
2023-03-06T16:30:54.274Z,14.63
2023-03-06T16:37:48.687Z,13.45
2023-03-06T16:44:39.383Z,28.83
2023-03-06T16:51:33.668Z,15.98
2023-03-06T16:58:23.323Z,16.63
2023-03-06T17:05:23.079Z,18.23
2023-03-06T17:12:11.916Z,19.63
2023-03-06T17:19:02.219Z,18.60
2023-03-06T17:26:50.985Z,17.90
2023-03-06T17:33:40.471Z,18.63
2023-03-06T17:40:36.045Z,17.38
2023-03-06T17:54:34.828Z,20.42
2023-03-06T18:01:27.782Z,18.90
2023-03-06T18:08:21.647Z,26.65
2023-03-06T18:15:13.135Z,27.20
2023-03-06T18:26:48.495Z,20.13
2023-03-06T18:33:46.761Z,35.03
2023-03-06T18:40:44.789Z,29.65
2023-03-06T18:47:44.776Z,20.73
2023-03-06T18:54:40.684Z,31.83
2023-03-06T19:01:32.012Z,33.78
2023-03-06T19:08:26.662Z,31.02
2023-03-06T19:15:18.611Z,27.55
2023-03-06T19:26:33.979Z,27.00
2023-03-06T19:33:26.534Z,25.88
2023-03-06T19:40:23.152Z,26.52
2023-03-06T19:47:06.211Z,24.02
2023-03-06T19:50:36.963Z,24.17
2023-03-06T19:53:18.798Z,25.08
2023-03-06T19:56:04.852Z,23.67
2023-03-06T20:03:05.394Z,24.02
2023-03-06T20:06:40.288Z,24.38
2023-03-06T20:09:53.586Z,23.95
2023-03-06T20:16:44.199Z,25.33
2023-03-06T20:28:04.029Z,44.03
2023-03-06T20:35:09.896Z,28.02
2023-03-06T20:42:05.093Z,41.25
2023-03-06T20:48:56.274Z,36.30
2023-03-06T20:56:18.809Z,44.72
2023-03-06T21:03:08.842Z,42.50
2023-03-06T21:05:40.076Z,41.67
2023-03-06T21:12:22.600Z,37.15
2023-03-06T21:14:59.726Z,38.90
2023-03-06T21:21:46.935Z,39.95
2023-03-06T21:29:38.920Z,39.75
2023-03-06T21:32:10.831Z,35.40
2023-03-06T21:34:46.910Z,36.65
2023-03-06T21:41:05.058Z,32.25
2023-03-06T21:52:26.234Z,19.90
2023-03-06T21:55:27.877Z,21.45
2023-03-06T22:02:23.674Z,17.63
2023-03-06T22:05:12.322Z,19.85
2023-03-06T22:12:06.624Z,20.70
2023-03-06T22:14:44.632Z,22.85
2023-03-06T22:21:39.869Z,23.55
2023-03-06T22:28:29.243Z,31.42
2023-03-06T22:35:22.731Z,28.98
2023-03-06T22:42:03.879Z,29.17
2023-03-06T22:48:59.689Z,25.67
2023-03-06T22:55:46.573Z,27.70
2023-03-06T23:02:35.396Z,29.30
2023-03-06T23:09:25.353Z,29.83
2023-03-06T23:16:36.811Z,33.88
2023-03-06T23:27:58.084Z,33.75
2023-03-06T23:34:50.765Z,37.50
2023-03-06T23:41:38.681Z,36.65
2023-03-06T23:48:33.210Z,37.03
2023-03-06T23:55:14.205Z,38.08
